Ritchie, South Africa
Current Conditions -  °F | °C
As of 2:00 PM on Tuesday 21 Oct 2014 (Local Time) from FAKM Reporting Station
Clear Clear  
Wind Chill: 93°   Ceiling: Unl
Heat Index: 93°   Visibility: 6mi
Dew Point: 19°   Wind: 10mph
Humidity: 7%   Direction: 240°WSW
Pressure: 29.97"   Gusts: NA
Location:  29.04°S, 24.6°E
Report Text: FAKM 211200Z 24009KT CAVOK 34/M07 Q1015
Loading
Personal Weather Stations






























Interactive Weather Map
Tropical Storm Tracking
New forecast layout! Learn more

10-Day Weather Forecast

Advertisements
Track Severe Weather on mobile